Time;durP1;ratioP1;P1;durP2;ratioP2;P2;SDS_P1;SDS_P2;PMS_P1;PMS_P2;Temp;Humidity;BMP_temperature;BMP_pressure;BME280_temperature;BME280_humidity;BME280_pressure;Samples;Min_cycle;Max_cycle;Signal;HPM_P1;HPM_P2
2022/07/24 00:01:58;;;;;;;;;11.75;8.25;;;;;24.31;49.64;101444.00;5073554;27;62999;-38
2022/07/24 00:04:24;;;;;;;;;9.75;8.25;;;;;24.34;49.76;101440.22;5068816;27;51807;-38
2022/07/24 00:06:49;;;;;;;;;10.50;9.00;;;;;24.40;49.51;101445.13;5068796;27;46439;-38
2022/07/24 00:09:15;;;;;;;;;14.25;8.75;;;;;24.42;49.68;101445.88;5071902;28;45476;-38
2022/07/24 00:11:41;;;;;;;;;10.50;9.75;;;;;24.48;49.72;101445.41;5074456;27;45592;-39
2022/07/24 00:14:06;;;;;;;;;12.25;9.50;;;;;24.49;49.32;101440.91;5078367;27;46104;-38
2022/07/24 00:16:31;;;;;;;;;15.00;10.50;;;;;24.52;49.64;101448.72;5068031;27;45407;-38
2022/07/24 00:18:57;;;;;;;;;10.25;8.00;;;;;24.57;49.69;101455.44;5059244;28;45505;-38
2022/07/24 00:21:22;;;;;;;;;11.50;10.75;;;;;24.59;49.63;101452.66;5074572;27;45696;-38
2022/07/24 00:23:47;;;;;;;;;10.00;9.75;;;;;24.62;49.48;101449.75;5086790;27;46997;-38
2022/07/24 00:26:13;;;;;;;;;13.00;8.75;;;;;24.62;49.44;101437.22;5071624;27;53528;-38
2022/07/24 00:28:39;;;;;;;;;11.75;11.00;;;;;24.67;49.35;101444.06;5075602;28;45529;-38
2022/07/24 00:31:05;;;;;;;;;12.00;9.75;;;;;24.69;49.36;101434.09;5074080;27;56902;-38
2022/07/24 00:33:30;;;;;;;;;10.25;10.25;;;;;24.71;49.36;101443.72;5075765;27;46077;-38
2022/07/24 00:35:56;;;;;;;;;8.75;8.50;;;;;24.74;49.56;101429.25;5056436;28;45267;-38
2022/07/24 00:38:21;;;;;;;;;10.50;9.75;;;;;24.74;49.36;101421.22;5071977;28;45664;-39
2022/07/24 00:40:47;;;;;;;;;12.00;10.25;;;;;24.77;49.20;101421.84;5077264;27;45436;-39
2022/07/24 00:43:12;;;;;;;;;13.25;10.50;;;;;24.80;49.32;101412.72;5075136;27;61276;-39
2022/07/24 00:45:38;;;;;;;;;12.00;9.00;;;;;24.80;49.21;101410.03;5077475;27;45523;-39
2022/07/24 00:48:04;;;;;;;;;9.25;9.25;;;;;24.82;49.33;101400.94;5075661;27;45270;-39
2022/07/24 00:50:30;;;;;;;;;10.25;9.50;;;;;24.85;49.22;101401.66;5077779;28;45746;-39
2022/07/24 00:52:56;;;;;;;;;12.50;9.75;;;;;24.86;49.21;101396.19;5075628;27;46830;-39
2022/07/24 00:55:22;;;;;;;;;9.00;8.00;;;;;24.87;49.27;101395.22;5076196;27;53248;-39
2022/07/24 00:57:48;;;;;;;;;10.00;8.00;;;;;24.88;49.26;101394.25;5072827;27;45362;-38
2022/07/24 01:00:15;;;;;;;;;10.25;8.25;;;;;24.90;49.02;101394.13;5081017;27;45519;-39
2022/07/24 01:02:41;;;;;;;;;10.25;8.25;;;;;24.91;49.25;101385.97;5071587;27;45547;-39
2022/07/24 01:05:10;;;;;;;;;8.25;6.75;;;;;24.93;49.18;101385.84;5073209;27;45364;-39
2022/07/24 01:07:36;;;;;;;;;9.25;7.00;;;;;24.94;49.22;101383.03;5070769;28;45395;-39
2022/07/24 01:10:02;;;;;;;;;10.75;9.00;;;;;24.96;49.30;101374.91;5070546;28;45520;-39
2022/07/24 01:12:28;;;;;;;;;7.50;7.50;;;;;24.97;49.08;101380.13;5071933;28;45474;-39
2022/07/24 01:14:53;;;;;;;;;10.50;9.00;;;;;24.97;49.13;101382.81;5070683;27;45426;-38
2022/07/24 01:17:19;;;;;;;;;7.00;5.75;;;;;24.99;49.15;101388.06;5066214;27;64158;-40
2022/07/24 01:19:45;;;;;;;;;8.50;8.25;;;;;24.98;49.05;101386.34;5066372;28;45602;-39
2022/07/24 01:22:10;;;;;;;;;9.50;9.00;;;;;25.00;49.33;101389.75;5067456;28;46299;-38
2022/07/24 01:24:36;;;;;;;;;8.50;7.50;;;;;25.02;49.32;101387.81;5074311;28;45514;-38
2022/07/24 01:27:01;;;;;;;;;11.75;8.00;;;;;25.04;49.11;101398.38;5071268;27;63789;-39
2022/07/24 01:29:26;;;;;;;;;9.00;8.00;;;;;25.03;49.16;101394.88;5066354;28;66414;-39
2022/07/24 01:31:52;;;;;;;;;12.75;9.00;;;;;25.05;48.88;101395.59;5066332;27;65732;-40
2022/07/24 01:34:17;;;;;;;;;10.00;8.75;;;;;25.06;49.15;101397.31;5065871;28;67150;-40
2022/07/24 01:36:42;;;;;;;;;7.50;7.25;;;;;25.07;49.17;101387.44;5065340;27;60520;-39
2022/07/24 01:39:08;;;;;;;;;8.75;8.00;;;;;25.07;48.96;101393.66;5072323;27;45725;-39
2022/07/24 01:41:33;;;;;;;;;7.75;7.50;;;;;25.08;49.10;101390.00;5070398;28;45989;-39
2022/07/24 01:43:58;;;;;;;;;8.25;8.00;;;;;25.08;48.83;101387.34;5071819;28;45500;-39
2022/07/24 01:46:24;;;;;;;;;7.50;7.00;;;;;25.09;49.22;101393.53;5071505;27;45635;-39
2022/07/24 01:48:50;;;;;;;;;7.00;7.00;;;;;25.10;49.14;101390.75;5073338;27;45659;-39
2022/07/24 01:51:15;;;;;;;;;7.00;7.00;;;;;25.11;49.05;101391.63;5065789;27;46417;-39
2022/07/24 01:53:40;;;;;;;;;9.50;6.25;;;;;25.10;49.01;101385.38;5071751;28;45723;-39
2022/07/24 01:56:06;;;;;;;;;11.25;7.75;;;;;25.11;49.18;101392.47;5073510;27;62885;-40
2022/07/24 01:58:32;;;;;;;;;8.00;8.00;;;;;25.11;49.12;101383.59;5072543;27;45414;-39
2022/07/24 02:00:57;;;;;;;;;8.00;7.00;;;;;25.14;49.01;101383.31;5061740;27;45691;-39
2022/07/24 02:03:22;;;;;;;;;8.00;8.00;;;;;25.12;49.29;101380.75;5073784;27;60188;-39
2022/07/24 02:05:48;;;;;;;;;7.50;5.50;;;;;25.14;49.03;101384.19;5069581;27;58997;-40
2022/07/24 02:08:13;;;;;;;;;7.50;6.75;;;;;25.14;49.08;101378.84;5067333;27;57230;-39
2022/07/24 02:10:39;;;;;;;;;6.25;6.25;;;;;25.14;49.28;101381.50;5070188;27;57928;-40
2022/07/24 02:13:05;;;;;;;;;10.25;7.50;;;;;25.16;48.95;101381.38;5076738;27;47583;-39
2022/07/24 02:15:30;;;;;;;;;8.50;8.50;;;;;25.16;49.19;101378.69;5068655;28;45378;-39
2022/07/24 02:17:58;;;;;;;;;8.00;8.00;;;;;25.16;49.31;101376.00;5070138;27;45904;-40
2022/07/24 02:20:24;;;;;;;;;11.25;8.75;;;;;25.15;49.01;101372.47;5067049;27;45326;-39
2022/07/24 02:22:50;;;;;;;;;8.00;7.75;;;;;25.16;49.29;101368.84;5068943;27;45610;-39
2022/07/24 02:25:15;;;;;;;;;8.00;7.00;;;;;25.17;49.15;101370.53;5069545;27;45408;-40
2022/07/24 02:27:41;;;;;;;;;7.00;6.50;;;;;25.18;49.13;101369.56;5067099;27;45457;-37
2022/07/24 02:30:11;;;;;;;;;7.00;5.00;;;;;25.17;49.04;101361.66;5061357;28;67836;-39
2022/07/24 02:32:36;;;;;;;;;9.50;9.25;;;;;25.19;48.89;101365.06;5066298;28;45410;-39
2022/07/24 02:35:02;;;;;;;;;10.00;6.00;;;;;25.19;49.05;101360.53;5081977;27;45444;-39
2022/07/24 02:37:28;;;;;;;;;7.00;7.00;;;;;25.19;48.90;101357.88;5069576;27;45762;-39
2022/07/24 02:39:53;;;;;;;;;5.50;5.50;;;;;25.20;49.21;101353.38;5065814;27;69286;-40
2022/07/24 02:42:18;;;;;;;;;7.75;7.25;;;;;25.19;48.86;101349.84;5065658;28;65819;-39
2022/07/24 02:44:43;;;;;;;;;8.00;6.25;;;;;25.20;48.96;101351.56;5072325;27;59505;-39
2022/07/24 02:47:09;;;;;;;;;6.00;5.25;;;;;25.19;48.86;101347.16;5073649;28;49810;-39
2022/07/24 02:49:35;;;;;;;;;7.50;6.75;;;;;25.21;48.90;101349.72;5074409;27;59735;-40
2022/07/24 02:52:01;;;;;;;;;6.25;5.50;;;;;25.21;49.21;101344.34;5067959;27;45714;-39
2022/07/24 02:54:26;;;;;;;;;7.00;6.25;;;;;25.22;48.80;101343.41;5068298;27;45415;-39
2022/07/24 02:56:52;;;;;;;;;9.50;9.00;;;;;25.22;49.00;101338.03;5069582;27;63413;-39
2022/07/24 02:59:17;;;;;;;;;8.75;6.00;;;;;25.22;48.99;101337.19;5054695;28;55919;-40
2022/07/24 03:01:42;;;;;;;;;8.75;5.25;;;;;25.22;48.88;101329.16;5066751;27;67936;-39
2022/07/24 03:04:08;;;;;;;;;7.50;7.25;;;;;25.23;49.01;101331.69;5069916;27;50081;-39
2022/07/24 03:06:34;;;;;;;;;7.00;5.75;;;;;25.23;48.88;101328.16;5072236;27;45403;-40
2022/07/24 03:09:00;;;;;;;;;10.25;7.25;;;;;25.22;48.84;101321.97;5065301;27;46094;-40
2022/07/24 03:11:26;;;;;;;;;6.00;5.25;;;;;25.23;48.67;101326.31;5066995;27;47435;-39
2022/07/24 03:13:51;;;;;;;;;9.00;7.00;;;;;25.23;48.57;101325.50;5077737;27;45358;-39
2022/07/24 03:16:16;;;;;;;;;5.75;5.00;;;;;25.22;48.87;101319.28;5071560;27;69172;-40
2022/07/24 03:18:45;;;;;;;;;8.00;6.50;;;;;25.23;49.06;101325.50;5074508;27;46995;-39
2022/07/24 03:21:12;;;;;;;;;10.25;7.00;;;;;25.24;48.76;101325.38;5068275;28;45900;-39
2022/07/24 03:23:38;;;;;;;;;8.50;6.75;;;;;25.21;48.74;101317.56;5076195;27;45339;-40
2022/07/24 03:26:03;;;;;;;;;4.75;4.75;;;;;25.22;49.06;101332.69;5068962;27;58952;-40
2022/07/24 03:28:29;;;;;;;;;7.00;6.00;;;;;25.23;48.76;101325.50;5074476;27;46897;-40
2022/07/24 03:30:54;;;;;;;;;7.25;6.50;;;;;25.24;48.58;101327.19;5076493;28;45421;-40
2022/07/24 03:33:20;;;;;;;;;5.25;4.50;;;;;25.23;49.06;101328.16;5069248;27;47265;-39
2022/07/24 03:35:45;;;;;;;;;8.00;6.00;;;;;25.24;48.71;101322.69;5076911;27;68503;-39
2022/07/24 03:38:10;;;;;;;;;5.25;4.50;;;;;25.23;48.73;101325.50;5071663;27;45465;-39
2022/07/24 03:40:36;;;;;;;;;8.50;5.50;;;;;25.24;48.65;101322.69;5077264;27;62657;-40
2022/07/24 03:43:02;;;;;;;;;8.25;7.00;;;;;25.23;48.96;101323.66;5072374;27;60648;-40
2022/07/24 03:45:27;;;;;;;;;7.75;6.00;;;;;25.25;48.55;101329.78;5070603;27;45584;-40
2022/07/24 03:47:52;;;;;;;;;6.25;6.25;;;;;25.25;48.81;101323.56;5075070;28;45846;-40
2022/07/24 03:50:18;;;;;;;;;7.00;6.50;;;;;25.25;48.97;101326.25;5067156;28;45229;-39
2022/07/24 03:52:43;;;;;;;;;6.50;5.75;;;;;25.25;48.79;101326.25;5069655;27;62091;-40
2022/07/24 03:55:09;;;;;;;;;7.00;6.25;;;;;25.26;48.49;101328.81;5077937;27;45586;-39
2022/07/24 03:57:34;;;;;;;;;7.00;6.00;;;;;25.25;48.77;101321.75;5074086;27;65183;-39
2022/07/24 03:59:59;;;;;;;;;5.75;5.75;;;;;25.24;48.67;101320.00;5074913;27;59636;-39
2022/07/24 04:02:24;;;;;;;;;6.00;5.75;;;;;25.25;48.82;101319.09;5072371;27;64142;-39
2022/07/24 04:04:50;;;;;;;;;6.75;5.00;;;;;25.25;48.56;101321.75;5072039;28;54026;-39
2022/07/24 04:07:15;;;;;;;;;10.25;7.25;;;;;25.26;48.80;101320.78;5070266;27;68561;-39
2022/07/24 04:09:41;;;;;;;;;7.00;5.75;;;;;25.25;48.68;101324.44;5071387;27;61584;-39
2022/07/24 04:12:06;;;;;;;;;8.25;5.75;;;;;25.25;48.66;101327.13;5072671;28;66895;-40
2022/07/24 04:14:32;;;;;;;;;7.00;6.25;;;;;25.26;48.38;101330.63;5069670;27;45681;-40
2022/07/24 04:16:57;;;;;;;;;6.00;6.00;;;;;25.26;48.48;101334.16;5068986;27;47011;-40
2022/07/24 04:19:23;;;;;;;;;5.00;4.75;;;;;25.26;48.56;101336.84;5062698;28;50085;-39
2022/07/24 04:21:49;;;;;;;;;6.25;5.50;;;;;25.26;48.70;101333.31;5064374;27;45397;-40
2022/07/24 04:24:14;;;;;;;;;6.25;4.25;;;;;25.26;48.69;101331.47;5075961;28;62819;-40
2022/07/24 04:26:39;;;;;;;;;7.00;5.50;;;;;25.26;48.59;101336.84;5075916;28;49785;-39
2022/07/24 04:29:05;;;;;;;;;6.00;4.25;;;;;25.27;48.57;101332.31;5067098;27;62108;-40
2022/07/24 04:31:30;;;;;;;;;6.25;5.75;;;;;25.27;48.49;101335.88;5071873;28;66829;-40
2022/07/24 04:33:55;;;;;;;;;7.00;4.50;;;;;25.27;48.27;101326.97;5067385;27;45504;-40
2022/07/24 04:36:21;;;;;;;;;5.25;5.25;;;;;25.26;48.55;101326.13;5067449;28;46965;-40
2022/07/24 04:38:46;;;;;;;;;5.00;5.00;;;;;25.27;48.79;101326.97;5074352;27;57157;-39
2022/07/24 04:41:12;;;;;;;;;4.00;4.00;;;;;25.27;48.41;101330.53;5067249;27;45525;-40
2022/07/24 04:43:37;;;;;;;;;7.75;4.75;;;;;25.28;48.55;101332.22;5073655;27;45449;-39
2022/07/24 04:46:02;;;;;;;;;7.50;5.00;;;;;25.28;48.53;101336.72;5067966;28;66945;-40
2022/07/24 04:48:28;;;;;;;;;7.00;6.00;;;;;25.27;48.49;101330.53;5073987;28;65201;-39
2022/07/24 04:50:53;;;;;;;;;6.00;5.50;;;;;25.27;48.59;101335.00;5078476;27;45265;-40
2022/07/24 04:53:18;;;;;;;;;6.00;6.00;;;;;25.26;48.64;101323.44;5070805;27;61403;-39
2022/07/24 04:55:44;;;;;;;;;6.25;5.00;;;;;25.28;48.68;101324.16;5074861;27;54692;-39
2022/07/24 04:58:09;;;;;;;;;5.75;4.75;;;;;25.29;48.54;101328.56;5071460;28;62872;-39
2022/07/24 05:00:34;;;;;;;;;10.50;6.00;;;;;25.29;48.77;101325.03;5076000;27;63712;-39
2022/07/24 05:03:00;;;;;;;;;6.25;5.50;;;;;25.29;48.79;101322.38;5067916;27;64550;-39
2022/07/24 05:05:25;;;;;;;;;6.50;4.25;;;;;25.29;48.55;101323.22;5070473;28;65391;-39
2022/07/24 05:07:50;;;;;;;;;6.25;4.25;;;;;25.30;48.38;101329.41;5071087;27;45479;-39
2022/07/24 05:10:16;;;;;;;;;5.75;5.75;;;;;25.30;48.58;101327.59;5070384;27;45525;-40
2022/07/24 05:12:41;;;;;;;;;7.25;6.50;;;;;25.29;48.45;101331.25;5069259;27;47099;-40
2022/07/24 05:15:07;;;;;;;;;7.00;5.25;;;;;25.30;48.56;101326.72;5064219;27;65279;-40
2022/07/24 05:17:35;;;;;;;;;7.25;6.75;;;;;25.30;48.51;101322.25;5066437;28;45496;-40
2022/07/24 05:20:02;;;;;;;;;6.00;4.50;;;;;25.31;48.51;101326.63;5070626;28;45579;-39
2022/07/24 05:22:28;;;;;;;;;6.00;5.00;;;;;25.32;48.55;101327.47;5072780;28;45452;-39
2022/07/24 05:24:53;;;;;;;;;6.50;6.00;;;;;25.31;48.46;101334.66;5068892;27;45453;-40
2022/07/24 05:27:18;;;;;;;;;6.25;5.50;;;;;25.32;48.69;101331.00;5075116;27;66939;-40
2022/07/24 05:29:44;;;;;;;;;9.00;6.25;;;;;25.33;48.43;101326.50;5072935;27;62860;-39
2022/07/24 05:32:09;;;;;;;;;7.75;7.00;;;;;25.33;48.07;101327.34;5070274;27;46185;-40
2022/07/24 05:34:35;;;;;;;;;5.25;4.25;;;;;25.34;48.10;101325.53;5072391;28;46493;-40
2022/07/24 05:37:00;;;;;;;;;7.50;6.00;;;;;25.36;48.13;101318.22;5053964;28;45836;-40
2022/07/24 05:39:26;;;;;;;;;5.75;5.00;;;;;25.35;48.22;101321.84;5072274;27;45472;-40
2022/07/24 05:41:51;;;;;;;;;6.25;4.25;;;;;25.37;48.29;101327.94;5070596;27;52643;-40
2022/07/24 05:44:16;;;;;;;;;7.50;6.25;;;;;25.38;48.49;101335.03;5068761;28;49995;-40
2022/07/24 05:46:42;;;;;;;;;6.50;5.25;;;;;25.38;48.21;101330.50;5072374;27;60944;-40
2022/07/24 05:49:07;;;;;;;;;7.75;5.50;;;;;25.39;48.18;101328.66;5070013;27;47638;-40
2022/07/24 05:51:32;;;;;;;;;5.25;3.50;;;;;25.38;48.05;101325.16;5070584;27;50883;-40
2022/07/24 05:53:58;;;;;;;;;6.75;5.50;;;;;25.39;48.21;101332.22;5074022;27;45482;-40
2022/07/24 05:56:23;;;;;;;;;7.00;5.00;;;;;25.40;48.44;101325.03;5068727;27;45449;-40
2022/07/24 05:58:48;;;;;;;;;5.75;5.75;;;;;25.41;48.29;101332.09;5071297;27;53513;-40
2022/07/24 06:01:14;;;;;;;;;5.50;5.50;;;;;25.39;48.06;101321.50;5072277;28;45428;-39
2022/07/24 06:03:39;;;;;;;;;8.50;6.00;;;;;25.42;48.00;101319.53;5069038;27;65605;-39
2022/07/24 06:06:05;;;;;;;;;6.75;6.00;;;;;25.41;48.13;101324.06;5069598;27;68630;-40
2022/07/24 06:08:30;;;;;;;;;11.00;8.00;;;;;25.43;47.67;101323.91;5070432;27;45508;-39
2022/07/24 06:10:56;;;;;;;;;7.00;5.75;;;;;25.42;48.03;101323.06;5068123;28;46037;-39
2022/07/24 06:13:21;;;;;;;;;8.25;6.50;;;;;25.43;48.00;101321.22;5066265;27;45465;-45
2022/07/24 06:15:46;;;;;;;;;8.00;6.25;;;;;25.43;48.06;101322.09;5069542;27;57411;-40
2022/07/24 06:18:12;;;;;;;;;8.00;7.00;;;;;25.44;48.07;101321.13;5064779;28;59474;-40
2022/07/24 06:20:37;;;;;;;;;10.50;7.50;;;;;25.44;48.29;101310.38;5069734;27;69243;-40
2022/07/24 06:23:02;;;;;;;;;4.25;4.25;;;;;25.44;48.29;101315.75;5064967;27;73324;-40
2022/07/24 06:25:27;;;;;;;;;7.75;6.50;;;;;25.45;47.77;101314.78;5065397;27;51938;-41
2022/07/24 06:27:57;;;;;;;;;8.25;8.00;;;;;25.44;47.73;101306.88;5072622;27;55885;-40
2022/07/24 06:30:26;;;;;;;;;6.50;5.50;;;;;25.45;47.75;101312.09;5070774;27;45323;-40
2022/07/24 06:32:54;;;;;;;;;5.75;4.75;;;;;25.45;47.96;101309.44;5062663;28;46267;-40
2022/07/24 06:35:19;;;;;;;;;12.00;9.25;;;;;25.42;47.11;101303.47;5071841;28;45450;-51
2022/07/24 06:37:45;;;;;;;;;13.25;12.75;;;;;25.29;46.76;101307.13;5069953;28;45462;-52
2022/07/24 06:40:11;;;;;;;;;14.00;12.00;;;;;25.19;47.10;101311.50;5066074;27;45416;-51
2022/07/24 06:42:36;;;;;;;;;16.75;14.25;;;;;25.11;47.14;101305.91;5074408;28;47099;-51
2022/07/24 06:45:02;;;;;;;;;15.50;12.00;;;;;25.02;47.24;101307.50;5069546;27;45441;-47
2022/07/24 06:47:28;;;;;;;;;14.50;13.50;;;;;24.97;47.36;101307.84;5070227;28;45839;-48
2022/07/24 06:49:53;;;;;;;;;15.50;13.50;;;;;24.91;46.86;101299.44;5078237;28;45549;-49
2022/07/24 06:52:19;;;;;;;;;15.50;14.50;;;;;24.85;47.45;101308.81;5076093;27;60610;-50
2022/07/24 06:54:45;;;;;;;;;18.50;13.25;;;;;24.80;47.46;101306.47;5069683;28;45425;-48
2022/07/24 06:57:10;;;;;;;;;15.75;14.00;;;;;24.75;47.63;101302.47;5074592;27;45616;-46
2022/07/24 06:59:36;;;;;;;;;16.00;12.00;;;;;24.72;47.50;101294.66;5077726;27;45688;-53
2022/07/24 07:02:01;;;;;;;;;16.00;13.00;;;;;24.70;48.00;101301.97;5078078;27;54862;-52
2022/07/24 07:04:26;;;;;;;;;14.25;11.25;;;;;24.66;47.93;101303.19;5074210;27;60906;-53
2022/07/24 07:06:52;;;;;;;;;15.50;12.50;;;;;24.63;47.89;101299.78;5068502;27;45911;-52
2022/07/24 07:09:17;;;;;;;;;14.25;14.25;;;;;24.64;48.08;101297.94;5072260;27;65393;-46
2022/07/24 07:11:42;;;;;;;;;17.75;12.25;;;;;24.63;47.98;101302.44;5070682;28;71803;-51
2022/07/24 07:14:08;;;;;;;;;18.25;14.00;;;;;24.63;48.14;101302.44;5074006;27;66509;-51
2022/07/24 07:16:33;;;;;;;;;15.50;12.25;;;;;24.64;48.02;101305.97;5076417;28;60820;-49
2022/07/24 07:18:58;;;;;;;;;12.25;11.00;;;;;24.64;48.31;101304.13;5069420;27;55946;-49
2022/07/24 07:21:24;;;;;;;;;19.00;14.00;;;;;24.66;47.96;101308.53;5053714;27;46715;-51
2022/07/24 07:23:49;;;;;;;;;15.50;14.50;;;;;24.67;48.02;101307.56;5073994;27;65360;-48
2022/07/24 07:26:14;;;;;;;;;13.00;11.00;;;;;24.66;48.13;101303.19;5070643;27;45513;-52
2022/07/24 07:28:40;;;;;;;;;16.75;14.25;;;;;24.67;48.19;101303.06;5074464;27;45493;-48
2022/07/24 07:31:05;;;;;;;;;19.25;16.25;;;;;24.68;48.51;101303.91;5068212;28;68812;-48
2022/07/24 07:33:30;;;;;;;;;18.50;15.00;;;;;24.69;47.98;101308.31;5068612;27;45491;-50
2022/07/24 07:35:56;;;;;;;;;16.75;16.00;;;;;24.71;48.12;101298.31;5067395;27;45603;-49
2022/07/24 07:38:21;;;;;;;;;18.00;14.00;;;;;24.73;48.10;101305.25;5075690;27;66425;-51
2022/07/24 07:40:46;;;;;;;;;15.75;14.50;;;;;24.75;48.32;101294.44;5075060;27;45479;-50
2022/07/24 07:43:12;;;;;;;;;16.75;14.25;;;;;24.79;48.28;101304.78;5087062;27;67486;-47
2022/07/24 07:45:37;;;;;;;;;15.75;14.25;;;;;24.82;48.33;101293.84;5076458;27;45429;-48
2022/07/24 07:48:03;;;;;;;;;18.75;14.75;;;;;24.85;48.22;101299.94;5075385;28;45524;-47
2022/07/24 07:50:28;;;;;;;;;19.75;17.00;;;;;24.88;48.17;101294.31;5069068;27;45382;-47
2022/07/24 07:52:54;;;;;;;;;17.75;15.50;;;;;24.92;48.48;101296.63;5072070;27;45300;-49
2022/07/24 07:55:20;;;;;;;;;14.50;13.00;;;;;24.94;48.18;101291.16;5079482;27;45361;-50
2022/07/24 07:57:45;;;;;;;;;15.50;14.25;;;;;24.97;48.27;101298.97;5073372;27;45517;-48
2022/07/24 08:00:11;;;;;;;;;19.00;16.25;;;;;24.98;48.34;101290.81;5065644;28;46028;-50
2022/07/24 08:02:37;;;;;;;;;20.50;15.00;;;;;24.99;48.30;101286.31;5073725;28;45723;-48
2022/07/24 08:05:03;;;;;;;;;23.00;20.00;;;;;25.01;48.06;101279.00;5070877;27;45359;-48
2022/07/24 08:07:28;;;;;;;;;19.00;19.00;;;;;25.04;48.07;101281.44;5071314;27;45352;-45
2022/07/24 08:09:53;;;;;;;;;18.25;17.50;;;;;25.07;48.12;101283.00;5073475;27;65023;-48
2022/07/24 08:12:19;;;;;;;;;19.25;15.50;;;;;25.10;48.01;101288.13;5074297;27;67618;-47
2022/07/24 08:14:44;;;;;;;;;18.00;15.00;;;;;25.10;48.26;101277.41;5076323;28;61261;-52
2022/07/24 08:17:09;;;;;;;;;16.75;14.50;;;;;25.15;48.27;101272.53;5074662;28;56515;-49
2022/07/24 08:19:35;;;;;;;;;15.50;13.75;;;;;25.19;48.33;101276.66;5076911;28;46112;-48
2022/07/24 08:22:00;;;;;;;;;20.00;17.00;;;;;25.23;48.49;101277.28;5066173;27;45390;-48
2022/07/24 08:24:26;;;;;;;;;20.50;15.50;;;;;25.25;47.92;101278.03;5075004;27;45450;-48
2022/07/24 08:26:51;;;;;;;;;19.50;18.25;;;;;25.27;47.96;101278.75;5077647;27;45416;-47
2022/07/24 08:29:17;;;;;;;;;22.50;18.00;;;;;25.26;47.81;101267.19;5078037;27;46207;-44
2022/07/24 08:31:43;;;;;;;;;21.25;17.75;;;;;25.29;48.15;101277.66;5073904;27;45379;-49
2022/07/24 08:34:08;;;;;;;;;18.50;14.75;;;;;25.30;48.00;101270.47;5077629;27;45311;-50
2022/07/24 08:36:34;;;;;;;;;17.75;15.50;;;;;25.33;48.02;101275.59;5071900;27;45387;-46
2022/07/24 08:38:59;;;;;;;;;18.75;14.75;;;;;25.37;47.73;101272.53;5071469;28;68637;-49
2022/07/24 08:41:26;;;;;;;;;19.25;14.00;;;;;25.41;47.93;101269.59;5070516;27;46696;-49
2022/07/24 08:43:51;;;;;;;;;18.75;16.00;;;;;25.43;47.98;101268.50;5078004;27;45451;-47
2022/07/24 08:46:17;;;;;;;;;20.25;15.50;;;;;25.45;47.77;101266.56;5075502;28;62573;-48
2022/07/24 08:48:44;;;;;;;;;16.50;16.25;;;;;25.48;47.65;101262.75;5074359;28;61728;-49
2022/07/24 08:51:10;;;;;;;;;14.25;13.00;;;;;25.50;47.67;101256.31;5075674;28;45457;-48
2022/07/24 08:53:35;;;;;;;;;21.00;16.00;;;;;25.52;47.78;101258.88;5075438;27;45478;-44
2022/07/24 08:56:01;;;;;;;;;17.00;15.25;;;;;25.55;47.16;101253.22;5051820;28;51016;-45
2022/07/24 08:58:26;;;;;;;;;17.75;15.00;;;;;25.57;47.34;101249.47;5070627;28;70235;-43
2022/07/24 09:00:51;;;;;;;;;14.25;13.00;;;;;25.60;47.43;101258.22;5078486;28;46368;-38
2022/07/24 09:03:17;;;;;;;;;22.50;19.50;;;;;25.62;47.70;101237.50;5069626;27;45443;-39
2022/07/24 09:06:01;;;;;;;;;25.00;24.00;;;;;25.63;47.48;101247.25;5065377;28;60258;-37
2022/07/24 09:08:27;;;;;;;;;20.50;18.50;;;;;25.63;47.56;101232.03;5067957;28;46020;-37
2022/07/24 09:10:58;;;;;;;;;14.50;13.25;;;;;25.64;47.25;101233.75;5082833;27;45551;-38
2022/07/24 09:13:26;;;;;;;;;21.50;17.25;;;;;25.66;47.41;101221.06;5071276;28;45227;-37
2022/07/24 09:15:51;;;;;;;;;18.25;15.75;;;;;25.64;46.92;101225.69;5072519;28;45372;-37
2022/07/24 09:18:33;;;;;;;;;16.25;14.00;;;;;25.46;46.08;101232.56;5071514;28;65442;-37
2022/07/24 09:21:19;;;;;;;;;14.50;13.75;;;;;25.20;46.15;101216.78;5074543;28;45404;-37
2022/07/24 09:23:45;;;;;;;;;13.75;11.00;;;;;25.00;45.79;101215.69;5067952;27;45383;-38
2022/07/24 09:26:11;;;;;;;;;16.50;12.75;;;;;24.81;45.99;101224.38;5069545;28;45597;-37
2022/07/24 09:28:48;;;;;;;;;12.25;10.25;;;;;24.66;45.37;101214.88;5076108;28;45938;-38
2022/07/24 09:31:14;;;;;;;;;14.50;12.75;;;;;24.49;45.04;101210.78;5071098;27;45814;-39
2022/07/24 09:33:39;;;;;;;;;12.25;9.75;;;;;24.38;45.44;101211.63;5074261;28;60437;-39
2022/07/24 09:36:14;;;;;;;;;13.75;11.00;;;;;24.24;45.79;101202.00;5068450;28;72302;-39
2022/07/24 09:38:46;;;;;;;;;11.25;11.00;;;;;24.14;45.44;101209.91;5069645;28;46458;-39
2022/07/24 09:41:12;;;;;;;;;20.75;17.25;;;;;24.06;45.04;101202.47;5069024;28;46004;-39
2022/07/24 09:43:38;;;;;;;;;15.75;13.50;;;;;23.98;45.04;101196.84;5066066;27;45467;-39
2022/07/24 09:46:10;;;;;;;;;23.00;18.50;;;;;23.94;45.15;101186.50;5071830;27;45455;-39
2022/07/24 09:48:40;;;;;;;;;28.25;22.25;;;;;23.88;45.48;101190.50;5073278;27;45666;-39
2022/07/24 09:51:09;;;;;;;;;39.00;27.75;;;;;23.86;45.54;101187.94;5073555;27;45325;-38
2022/07/24 09:53:35;;;;;;;;;26.50;21.75;;;;;23.82;45.09;101194.50;5068954;27;45627;-39
2022/07/24 09:56:02;;;;;;;;;24.00;22.00;;;;;23.79;44.88;101186.66;5086494;27;45349;-41
2022/07/24 09:58:29;;;;;;;;;23.25;19.50;;;;;23.76;44.98;101181.56;5064552;27;47715;-39
2022/07/24 10:00:57;;;;;;;;;24.50;15.00;;;;;23.76;44.79;101184.25;5070654;28;45858;-38
2022/07/24 10:03:35;;;;;;;;;17.50;14.75;;;;;23.78;44.84;101181.44;5069010;28;45539;-38
2022/07/24 10:06:03;;;;;;;;;14.00;13.75;;;;;23.87;45.76;101188.81;5092412;27;45478;-38
2022/07/24 10:08:31;;;;;;;;;17.50;13.50;;;;;23.99;46.67;101176.31;5066363;28;45344;-38
2022/07/24 10:10:57;;;;;;;;;18.25;13.50;;;;;24.17;45.77;101180.25;5063349;28;45706;-38
2022/07/24 10:13:24;;;;;;;;;16.25;13.50;;;;;24.35;45.74;101177.97;5075446;27;45361;-38
2022/07/24 10:16:03;;;;;;;;;15.50;12.00;;;;;25.23;44.88;101170.13;5071262;27;45519;-39
2022/07/24 10:18:49;;;;;;;;;13.50;13.00;;;;;27.24;42.97;101174.28;5066990;28;47792;-38
2022/07/24 10:21:26;;;;;;;;;11.50;9.75;;;;;29.00;39.83;101175.81;5060756;27;46141;-38
2022/07/24 10:24:07;;;;;;;;;13.50;12.00;;;;;30.28;37.64;101169.22;5072112;27;45376;-38
2022/07/24 10:26:50;;;;;;;;;11.75;9.75;;;;;31.34;36.47;101171.50;5066449;28;45438;-38
2022/07/24 10:29:21;;;;;;;;;14.00;11.25;;;;;32.07;34.95;101163.59;5067328;27;46066;-38
2022/07/24 10:31:50;;;;;;;;;12.25;9.00;;;;;32.61;33.56;101165.66;5073263;27;46102;-39
2022/07/24 10:34:24;;;;;;;;;10.00;9.25;;;;;32.88;33.25;101162.47;5070873;28;45446;-38
2022/07/24 10:37:20;;;;;;;;;15.75;9.75;;;;;33.15;32.12;101154.88;5062365;27;45454;-38
2022/07/24 10:39:58;;;;;;;;;16.25;9.75;;;;;33.16;32.18;101159.25;5068712;27;45485;-38
2022/07/24 10:42:24;;;;;;;;;13.75;10.00;;;;;32.99;31.92;101152.22;5071837;27;45797;-38
2022/07/24 10:45:22;;;;;;;;;12.50;10.00;;;;;32.40;32.57;101150.78;5075281;27;45392;-38
2022/07/24 10:47:48;;;;;;;;;11.00;9.00;;;;;31.82;32.88;101152.78;5051532;27;46089;-38
2022/07/24 10:50:14;;;;;;;;;10.50;7.25;;;;;31.18;33.73;101145.28;5074750;28;72381;-39
2022/07/24 10:52:41;;;;;;;;;9.25;9.25;;;;;30.62;34.40;101144.91;5070581;27;45450;-38
2022/07/24 10:55:19;;;;;;;;;11.25;9.25;;;;;30.01;34.91;101135.13;5074999;28;45504;-38
2022/07/24 10:57:49;;;;;;;;;11.00;9.00;;;;;29.48;35.82;101137.75;5073664;27;45598;-38
2022/07/24 11:00:44;;;;;;;;;11.50;9.00;;;;;28.65;37.63;101137.88;5074080;27;45776;-39
2022/07/24 11:03:24;;;;;;;;;9.00;7.00;;;;;27.88;39.02;101130.88;5066089;27;45717;-38
2022/07/24 11:06:10;;;;;;;;;10.00;9.00;;;;;27.30;41.51;101129.06;5072193;27;45357;-39
2022/07/24 11:08:55;;;;;;;;;12.00;9.75;;;;;26.89;42.59;101137.19;5075084;28;45610;-39
2022/07/24 11:11:23;;;;;;;;;9.00;9.00;;;;;26.64;44.21;101122.44;5066554;28;45449;-39
2022/07/24 11:13:51;;;;;;;;;7.50;7.25;;;;;26.46;44.88;101125.72;5077697;27;45382;-39
2022/07/24 11:16:16;;;;;;;;;9.00;8.00;;;;;26.34;45.72;101118.75;5073724;28;45456;-40